Time;durP1;ratioP1;P1;durP2;ratioP2;P2;SDS_P1;SDS_P2;PMS_P1;PMS_P2;Temp;Humidity;BMP_temperature;BMP_pressure;BME280_temperature;BME280_humidity;BME280_pressure;Samples;Min_cycle;Max_cycle;Signal;HPM_P1;HPM_P2
2022/10/13 00:01:11;;;;;;;23.45;11.35;;;8.90;99.90;;;;;;5046118;28;20044;-64
2022/10/13 00:03:41;;;;;;;25.60;11.50;;;8.90;99.90;;;;;;5055925;28;20083;-64
2022/10/13 00:06:09;;;;;;;25.77;12.10;;;8.90;99.90;;;;;;5047204;28;20041;-63
2022/10/13 00:08:36;;;;;;;28.65;12.32;;;8.90;99.90;;;;;;5052234;28;20035;-64
2022/10/13 00:11:12;;;;;;;27.83;11.90;;;8.90;99.90;;;;;;5050213;28;20037;-64
2022/10/13 00:13:38;;;;;;;22.13;11.93;;;9.00;99.90;;;;;;5049036;28;20037;-64
2022/10/13 00:16:04;;;;;;;23.83;11.43;;;9.00;99.90;;;;;;5046486;28;20171;-64
2022/10/13 00:18:29;;;;;;;27.58;12.23;;;9.00;99.90;;;;;;5048511;28;20056;-64
2022/10/13 00:20:55;;;;;;;21.40;11.82;;;9.00;99.90;;;;;;5052440;28;20147;-64
2022/10/13 00:23:21;;;;;;;24.02;11.90;;;9.00;99.90;;;;;;5055221;28;20440;-64
2022/10/13 00:25:48;;;;;;;26.30;12.65;;;9.00;99.90;;;;;;5050642;28;20417;-63
2022/10/13 00:28:16;;;;;;;20.35;11.90;;;9.00;99.90;;;;;;5048855;28;20052;-64
2022/10/13 00:30:42;;;;;;;23.00;11.82;;;9.00;99.90;;;;;;5053137;28;20051;-64
2022/10/13 00:33:09;;;;;;;24.48;12.85;;;9.00;99.90;;;;;;5046109;28;20048;-63
2022/10/13 00:35:43;;;;;;;27.33;12.50;;;9.00;99.90;;;;;;5054329;28;20047;-64
2022/10/13 00:38:10;;;;;;;26.10;12.45;;;9.00;99.90;;;;;;5046864;28;20120;-64
2022/10/13 00:41:02;;;;;;;23.42;12.23;;;9.00;99.90;;;;;;5057674;28;20045;-63
2022/10/13 00:43:58;;;;;;;22.08;11.70;;;9.00;99.90;;;;;;5040786;28;20053;-64
2022/10/13 00:46:28;;;;;;;25.92;12.65;;;9.00;99.90;;;;;;5046051;28;20477;-64
2022/10/13 00:48:55;;;;;;;26.85;13.35;;;9.00;99.90;;;;;;5058382;28;20051;-64
2022/10/13 00:51:25;;;;;;;23.70;12.52;;;9.10;99.90;;;;;;5054884;28;20083;-64
2022/10/13 00:53:52;;;;;;;26.70;12.20;;;9.00;99.90;;;;;;5052658;28;20475;-64
2022/10/13 00:56:19;;;;;;;23.98;12.43;;;9.10;99.90;;;;;;5051096;28;20080;-64
2022/10/13 00:58:47;;;;;;;31.98;13.45;;;9.10;99.90;;;;;;5042903;28;20044;-64
2022/10/13 01:01:13;;;;;;;24.63;13.07;;;9.10;99.90;;;;;;5069181;28;20075;-64
2022/10/13 01:03:39;;;;;;;27.85;12.88;;;9.10;99.90;;;;;;5048323;28;20138;-64
2022/10/13 01:06:06;;;;;;;28.55;13.27;;;9.10;99.90;;;;;;5049677;28;20510;-64
2022/10/13 01:08:32;;;;;;;26.70;12.85;;;9.10;99.90;;;;;;5054558;28;20050;-64
2022/10/13 01:11:21;;;;;;;22.00;12.90;;;9.10;99.90;;;;;;5049706;28;20232;-64
2022/10/13 01:13:47;;;;;;;26.35;13.30;;;9.10;99.90;;;;;;5040226;28;20495;-64
2022/10/13 01:16:35;;;;;;;27.13;14.15;;;9.10;99.90;;;;;;5050566;28;20453;-64
2022/10/13 01:19:04;;;;;;;21.48;12.18;;;9.10;99.90;;;;;;5048718;28;20071;-63
2022/10/13 01:21:54;;;;;;;29.27;13.80;;;9.10;99.90;;;;;;5051891;28;20474;-64
2022/10/13 01:24:45;;;;;;;25.23;12.93;;;9.20;99.90;;;;;;5046709;28;20056;-64
2022/10/13 01:27:38;;;;;;;23.45;12.82;;;9.20;99.90;;;;;;5051668;28;20449;-64
2022/10/13 01:30:04;;;;;;;23.00;12.75;;;9.20;99.90;;;;;;5057051;28;20071;-64
2022/10/13 01:32:52;;;;;;;23.88;13.50;;;9.20;99.90;;;;;;5057347;28;20072;-64
2022/10/13 01:35:32;;;;;;;28.42;13.65;;;9.20;99.90;;;;;;5047840;28;20032;-64
2022/10/13 01:38:12;;;;;;;24.63;13.23;;;9.20;99.90;;;;;;5046763;28;20116;-64
2022/10/13 01:41:04;;;;;;;27.53;12.57;;;9.20;99.90;;;;;;5057096;28;20144;-64
2022/10/13 01:43:35;;;;;;;27.65;13.32;;;9.20;99.90;;;;;;5043451;28;20060;-64
2022/10/13 01:46:11;;;;;;;28.50;14.10;;;9.20;99.90;;;;;;5048089;28;20048;-64
2022/10/13 01:48:39;;;;;;;23.75;14.07;;;9.20;99.90;;;;;;5047706;28;20052;-64
2022/10/13 01:51:08;;;;;;;27.02;14.23;;;9.10;99.90;;;;;;5045538;28;20083;-64
2022/10/13 01:53:34;;;;;;;29.33;15.07;;;9.10;99.90;;;;;;5055515;28;20032;-64
2022/10/13 01:56:00;;;;;;;24.30;13.50;;;9.10;99.90;;;;;;5049143;28;20435;-64
2022/10/13 01:58:28;;;;;;;22.77;13.20;;;9.10;99.90;;;;;;5045609;28;20060;-64
2022/10/13 02:01:03;;;;;;;26.88;14.57;;;9.10;99.90;;;;;;5049839;28;20306;-64
2022/10/13 02:03:38;;;;;;;24.85;14.40;;;9.10;99.90;;;;;;5060662;28;20060;-65
2022/10/13 02:06:21;;;;;;;28.30;13.88;;;9.10;99.90;;;;;;5058349;28;20072;-64
2022/10/13 02:09:04;;;;;;;35.75;15.15;;;9.10;99.90;;;;;;5048667;28;20040;-63
2022/10/13 02:11:30;;;;;;;25.15;12.82;;;9.10;99.90;;;;;;5057274;28;20044;-63
2022/10/13 02:14:20;;;;;;;32.17;14.00;;;9.10;99.90;;;;;;5043853;28;20036;-63
2022/10/13 02:16:49;;;;;;;29.00;14.15;;;9.10;99.90;;;;;;5061481;28;20043;-64
2022/10/13 02:19:17;;;;;;;27.55;13.82;;;9.10;99.90;;;;;;5050952;28;20079;-64
2022/10/13 02:21:44;;;;;;;29.30;13.90;;;9.10;99.90;;;;;;5051239;28;20112;-64
2022/10/13 02:24:10;;;;;;;28.05;14.70;;;9.10;99.90;;;;;;5055847;28;20049;-64
2022/10/13 02:26:37;;;;;;;25.27;13.93;;;9.10;99.90;;;;;;5058671;28;20065;-65
2022/10/13 02:29:10;;;;;;;28.95;14.05;;;9.10;99.90;;;;;;5056511;28;20428;-64
2022/10/13 02:31:37;;;;;;;24.45;13.63;;;9.10;99.90;;;;;;5045027;28;20077;-64
2022/10/13 02:34:03;;;;;;;31.65;15.38;;;9.20;99.90;;;;;;5050467;28;20128;-64
2022/10/13 02:36:29;;;;;;;25.20;14.68;;;9.20;99.90;;;;;;5054813;28;20067;-63
2022/10/13 02:38:54;;;;;;;27.42;14.40;;;9.20;99.90;;;;;;5053032;28;20036;-64
2022/10/13 02:41:20;;;;;;;24.25;14.02;;;9.20;99.90;;;;;;5054368;28;20040;-64
2022/10/13 02:43:45;;;;;;;23.90;14.20;;;9.20;99.90;;;;;;5048155;28;20051;-63
2022/10/13 02:46:11;;;;;;;28.17;14.38;;;9.20;99.90;;;;;;5051811;28;20045;-63
2022/10/13 02:48:36;;;;;;;25.10;13.80;;;9.20;99.90;;;;;;5051460;28;20033;-64
2022/10/13 02:51:02;;;;;;;26.40;14.32;;;9.20;99.90;;;;;;5049793;28;20057;-64
2022/10/13 02:53:28;;;;;;;28.55;14.23;;;9.20;99.90;;;;;;5060234;28;20044;-63
2022/10/13 02:55:53;;;;;;;24.02;14.13;;;9.20;99.90;;;;;;5047069;28;20130;-64
2022/10/13 02:58:19;;;;;;;28.50;14.35;;;9.20;99.90;;;;;;5054679;28;20071;-64
2022/10/13 03:00:44;;;;;;;32.38;13.93;;;9.30;99.90;;;;;;5050727;28;20388;-64
2022/10/13 03:03:10;;;;;;;25.08;13.75;;;9.30;99.90;;;;;;5055293;28;20068;-64
2022/10/13 03:05:36;;;;;;;28.23;14.27;;;9.30;99.90;;;;;;5045523;28;20392;-64
2022/10/13 03:08:02;;;;;;;28.05;14.50;;;9.30;99.90;;;;;;5047434;28;20041;-64
2022/10/13 03:10:29;;;;;;;30.17;14.77;;;9.40;99.90;;;;;;5043761;28;20151;-64
2022/10/13 03:12:55;;;;;;;33.53;15.50;;;9.40;99.90;;;;;;5040632;28;20344;-64
2022/10/13 03:15:21;;;;;;;33.20;15.23;;;9.40;99.90;;;;;;5048016;28;20053;-63
2022/10/13 03:17:47;;;;;;;28.15;14.73;;;9.40;99.90;;;;;;5046919;28;20041;-64
2022/10/13 03:20:12;;;;;;;25.70;15.30;;;9.40;99.90;;;;;;5042951;28;20139;-64
2022/10/13 03:22:38;;;;;;;28.90;14.50;;;9.40;99.90;;;;;;5052641;28;20060;-64
2022/10/13 03:25:04;;;;;;;29.33;14.98;;;9.50;99.90;;;;;;5054499;28;20040;-64
2022/10/13 03:27:30;;;;;;;30.80;15.23;;;9.50;99.90;;;;;;5054320;28;20060;-64
2022/10/13 03:29:56;;;;;;;31.25;15.30;;;9.50;99.90;;;;;;5059044;28;20037;-64
2022/10/13 03:32:21;;;;;;;25.80;14.05;;;9.50;99.90;;;;;;5057670;28;20091;-64
2022/10/13 03:34:47;;;;;;;27.42;14.18;;;9.50;99.90;;;;;;5063945;28;20116;-64
2022/10/13 03:37:12;;;;;;;30.98;14.35;;;9.50;99.90;;;;;;5046183;28;20433;-64
2022/10/13 03:39:38;;;;;;;30.50;14.25;;;9.50;99.90;;;;;;5061697;28;20052;-64
2022/10/13 03:42:03;;;;;;;29.73;15.93;;;9.50;99.90;;;;;;5053744;28;20139;-64
2022/10/13 03:44:29;;;;;;;27.55;14.60;;;9.60;99.90;;;;;;5051783;28;20108;-64
2022/10/13 03:46:54;;;;;;;29.58;15.65;;;9.60;99.90;;;;;;5052529;28;20136;-64
2022/10/13 03:49:20;;;;;;;29.70;15.43;;;9.50;99.90;;;;;;5052869;28;20464;-64
2022/10/13 03:51:46;;;;;;;27.45;14.60;;;9.50;99.90;;;;;;5053694;28;20040;-64
2022/10/13 03:54:13;;;;;;;31.27;15.23;;;9.50;99.90;;;;;;5048248;28;20044;-64
2022/10/13 03:56:39;;;;;;;31.25;15.80;;;9.50;99.90;;;;;;5045131;28;20044;-64
2022/10/13 03:59:07;;;;;;;30.05;15.95;;;9.40;99.90;;;;;;5048118;28;20040;-64
2022/10/13 04:01:33;;;;;;;31.33;16.55;;;9.30;99.90;;;;;;5060904;28;20422;-63
2022/10/13 04:04:01;;;;;;;32.90;16.38;;;9.30;99.90;;;;;;5051949;28;20049;-63
2022/10/13 04:06:26;;;;;;;35.80;17.13;;;9.30;99.90;;;;;;5049339;28;20136;-63
2022/10/13 04:08:53;;;;;;;31.42;16.33;;;9.30;99.90;;;;;;5049682;28;20528;-63
2022/10/13 04:11:19;;;;;;;36.70;17.60;;;9.20;99.90;;;;;;5052342;28;20420;-63
2022/10/13 04:13:45;;;;;;;38.55;19.02;;;9.20;99.90;;;;;;5048913;28;20048;-62
2022/10/13 04:16:16;;;;;;;37.65;17.83;;;9.20;99.90;;;;;;5045114;28;20049;-63
2022/10/13 04:18:43;;;;;;;33.65;17.55;;;9.20;99.90;;;;;;5058857;28;20400;-62
2022/10/13 04:21:11;;;;;;;37.67;19.17;;;9.20;99.90;;;;;;5051843;28;20123;-62
2022/10/13 04:23:37;;;;;;;35.28;19.23;;;9.20;99.90;;;;;;5050214;28;20041;-62
2022/10/13 04:26:04;;;;;;;36.15;18.80;;;9.20;99.90;;;;;;5051048;28;20044;-62
2022/10/13 04:28:32;;;;;;;38.45;20.98;;;9.20;99.90;;;;;;5045633;28;20041;-62
2022/10/13 04:30:58;;;;;;;37.45;18.88;;;9.20;99.90;;;;;;5051165;28;20484;-62
2022/10/13 04:33:24;;;;;;;39.30;19.85;;;9.20;99.90;;;;;;5048333;28;20440;-62
2022/10/13 04:35:49;;;;;;;41.53;19.88;;;9.20;99.90;;;;;;5043875;28;20049;-63
2022/10/13 04:38:15;;;;;;;38.90;20.25;;;9.20;99.90;;;;;;5048234;28;20041;-63
2022/10/13 04:40:40;;;;;;;39.88;19.42;;;9.20;99.90;;;;;;5051763;28;20047;-63
2022/10/13 04:43:06;;;;;;;44.00;21.77;;;9.30;99.90;;;;;;5041858;28;20028;-63
2022/10/13 04:45:31;;;;;;;44.17;21.20;;;9.20;99.90;;;;;;5057045;28;20117;-63
2022/10/13 04:47:59;;;;;;;45.95;22.08;;;9.20;99.90;;;;;;5055637;28;20047;-63
2022/10/13 04:50:24;;;;;;;40.10;20.33;;;9.20;99.90;;;;;;5048273;28;20171;-63
2022/10/13 04:52:50;;;;;;;47.90;22.20;;;9.20;99.90;;;;;;5061363;28;20131;-64
2022/10/13 04:55:15;;;;;;;46.70;20.77;;;9.20;99.90;;;;;;5052609;28;20172;-63
2022/10/13 04:57:41;;;;;;;42.40;21.52;;;9.20;99.90;;;;;;5046284;28;20048;-62
2022/10/13 05:00:07;;;;;;;54.55;23.13;;;9.20;99.90;;;;;;5035946;28;20056;-64
2022/10/13 05:02:36;;;;;;;42.10;21.35;;;9.20;99.90;;;;;;5044232;28;20203;-64
2022/10/13 05:05:02;;;;;;;52.00;22.95;;;9.10;99.90;;;;;;5045770;28;20037;-64
2022/10/13 05:07:29;;;;;;;47.60;23.45;;;9.20;99.90;;;;;;5049332;28;20068;-65
2022/10/13 05:09:54;;;;;;;50.03;22.27;;;9.20;99.90;;;;;;5042895;28;20049;-64
2022/10/13 05:12:20;;;;;;;52.80;24.10;;;9.20;99.90;;;;;;5056159;28;20102;-64
2022/10/13 05:14:46;;;;;;;53.88;24.88;;;9.20;99.90;;;;;;5056063;28;20041;-63
2022/10/13 05:17:11;;;;;;;52.05;24.13;;;9.20;99.90;;;;;;5048380;28;20463;-64
2022/10/13 05:19:37;;;;;;;65.25;26.92;;;9.20;99.90;;;;;;5049286;28;20165;-63
2022/10/13 05:22:03;;;;;;;53.35;25.77;;;9.30;99.90;;;;;;5050486;28;20033;-64
2022/10/13 05:24:37;;;;;;;56.13;24.67;;;9.30;99.90;;;;;;5035617;28;20144;-64
2022/10/13 05:27:09;;;;;;;61.17;26.67;;;9.30;99.90;;;;;;5052842;28;20044;-63
2022/10/13 05:29:36;;;;;;;52.58;25.25;;;9.30;99.90;;;;;;5049657;28;20418;-63
2022/10/13 05:32:01;;;;;;;55.58;26.42;;;9.30;99.90;;;;;;5047727;28;20069;-63
2022/10/13 05:34:27;;;;;;;68.15;27.15;;;9.30;99.90;;;;;;5052662;28;20069;-63
2022/10/13 05:36:52;;;;;;;64.55;26.65;;;9.30;99.90;;;;;;5045448;28;20109;-63
2022/10/13 05:39:18;;;;;;;66.88;27.67;;;9.30;99.90;;;;;;5044991;28;20052;-63
2022/10/13 05:41:43;;;;;;;58.63;28.08;;;9.30;99.90;;;;;;5047809;28;20096;-63
2022/10/13 05:44:09;;;;;;;66.97;28.35;;;9.30;99.90;;;;;;5046165;28;20037;-63
2022/10/13 05:46:35;;;;;;;56.65;25.45;;;9.30;99.90;;;;;;5050529;28;20028;-63
2022/10/13 05:49:01;;;;;;;56.42;27.05;;;9.30;99.90;;;;;;5058090;28;20044;-63
2022/10/13 05:51:32;;;;;;;67.80;28.33;;;9.30;99.90;;;;;;5062685;28;20040;-62
2022/10/13 05:54:29;;;;;;;87.93;29.17;;;9.30;99.90;;;;;;5052592;28;20077;-63
2022/10/13 05:57:30;;;;;;;55.63;26.05;;;9.40;99.90;;;;;;5034861;28;20600;-62
2022/10/13 06:00:08;;;;;;;53.40;26.20;;;9.40;99.90;;;;;;5054699;28;20037;-62
2022/10/13 06:02:50;;;;;;;65.63;27.05;;;9.40;99.90;;;;;;5050334;28;20064;-62
2022/10/13 06:05:18;;;;;;;64.05;28.08;;;9.40;99.90;;;;;;5053151;28;20045;-63
2022/10/13 06:07:45;;;;;;;59.45;26.10;;;9.40;99.90;;;;;;5051268;28;20910;-63
2022/10/13 06:10:11;;;;;;;64.18;27.38;;;9.40;99.90;;;;;;5046670;28;20045;-62
2022/10/13 06:12:37;;;;;;;70.30;28.15;;;9.40;99.90;;;;;;5043287;28;20443;-62
2022/10/13 06:15:03;;;;;;;60.88;27.10;;;9.40;99.90;;;;;;5054863;28;20071;-62
2022/10/13 06:17:29;;;;;;;63.30;27.02;;;9.40;99.90;;;;;;5048057;28;20617;-62
2022/10/13 06:19:54;;;;;;;73.60;28.35;;;9.40;99.90;;;;;;5056441;28;20057;-63
2022/10/13 06:22:20;;;;;;;61.45;27.27;;;9.50;99.90;;;;;;5056810;28;20403;-62
2022/10/13 06:24:46;;;;;;;61.80;29.13;;;9.50;99.90;;;;;;5053157;28;20045;-62
2022/10/13 06:27:12;;;;;;;66.95;28.98;;;9.50;99.90;;;;;;5045693;28;20102;-62
2022/10/13 06:29:38;;;;;;;60.33;27.10;;;9.60;99.90;;;;;;5048272;28;20029;-62
2022/10/13 06:32:04;;;;;;;66.68;28.75;;;9.50;99.90;;;;;;5050320;28;20398;-62
2022/10/13 06:34:30;;;;;;;62.70;26.85;;;9.60;99.90;;;;;;5052685;28;20159;-62
2022/10/13 06:36:55;;;;;;;59.20;28.20;;;9.60;99.90;;;;;;5056749;28;20095;-62
2022/10/13 06:39:21;;;;;;;60.40;25.65;;;9.60;99.90;;;;;;5062556;28;20041;-62
2022/10/13 06:41:47;;;;;;;56.38;28.30;;;9.60;99.90;;;;;;5032717;28;20036;-62
2022/10/13 06:44:12;;;;;;;56.15;27.88;;;9.60;99.90;;;;;;5068853;28;20048;-61
2022/10/13 06:46:38;;;;;;;72.57;27.95;;;9.60;99.90;;;;;;5057841;28;20051;-62
2022/10/13 06:49:04;;;;;;;90.38;32.97;;;9.70;99.90;;;;;;5046954;28;20040;-61
2022/10/13 06:51:29;;;;;;;61.30;27.65;;;9.70;99.90;;;;;;5066547;28;20054;-62
2022/10/13 06:53:55;;;;;;;69.85;29.58;;;9.60;99.90;;;;;;5068424;28;20037;-62
2022/10/13 06:56:22;;;;;;;76.53;30.45;;;9.70;99.90;;;;;;5050228;28;20135;-62
2022/10/13 06:58:47;;;;;;;68.68;29.10;;;9.80;99.90;;;;;;5050387;28;20127;-62
2022/10/13 07:01:13;;;;;;;66.13;28.83;;;9.90;99.90;;;;;;5051650;28;20499;-61
2022/10/13 07:03:39;;;;;;;66.40;27.83;;;9.90;99.90;;;;;;5070271;28;20556;-61
2022/10/13 07:06:05;;;;;;;63.40;27.05;;;9.90;99.90;;;;;;5060783;28;20053;-63
2022/10/13 07:08:32;;;;;;;64.88;29.17;;;9.90;99.90;;;;;;5054425;28;20105;-62
2022/10/13 07:10:58;;;;;;;62.30;27.55;;;9.90;99.90;;;;;;5055620;28;20052;-61
2022/10/13 07:13:24;;;;;;;67.90;29.42;;;9.90;99.90;;;;;;5052615;28;20029;-62
2022/10/13 07:15:50;;;;;;;71.88;28.77;;;9.90;99.90;;;;;;5070162;28;20036;-62
2022/10/13 07:18:15;;;;;;;68.65;29.85;;;10.00;99.90;;;;;;5056849;28;20045;-62
2022/10/13 07:20:41;;;;;;;60.97;26.73;;;9.90;99.90;;;;;;5063485;28;20040;-62
2022/10/13 07:23:06;;;;;;;65.60;28.67;;;10.00;99.90;;;;;;5061974;28;20059;-62
2022/10/13 07:25:32;;;;;;;58.47;26.75;;;10.00;99.90;;;;;;5052136;28;20055;-62
2022/10/13 07:27:58;;;;;;;57.85;27.27;;;10.00;99.90;;;;;;5049799;28;20064;-62
2022/10/13 07:30:24;;;;;;;59.58;26.88;;;10.00;99.90;;;;;;5058915;28;20163;-62
2022/10/13 07:32:50;;;;;;;64.95;28.95;;;10.00;99.90;;;;;;5060742;28;20363;-62
2022/10/13 07:35:16;;;;;;;69.65;27.77;;;10.00;99.90;;;;;;5054215;28;20121;-61
2022/10/13 07:37:41;;;;;;;58.17;27.90;;;10.00;99.90;;;;;;5051309;28;20044;-62
2022/10/13 07:40:08;;;;;;;57.28;28.08;;;10.00;99.90;;;;;;5051378;28;20439;-62
2022/10/13 07:42:33;;;;;;;67.47;29.35;;;10.00;99.90;;;;;;5059116;28;20061;-62
2022/10/13 07:44:59;;;;;;;65.35;27.40;;;10.00;99.90;;;;;;5063280;28;20141;-62
2022/10/13 07:47:24;;;;;;;58.00;26.90;;;10.10;99.90;;;;;;5057126;28;20526;-62
2022/10/13 07:49:50;;;;;;;64.35;27.90;;;10.10;99.90;;;;;;5056480;28;20403;-61
2022/10/13 07:52:16;;;;;;;60.20;26.85;;;10.20;99.90;;;;;;5058725;28;20639;-62
2022/10/13 07:54:41;;;;;;;60.80;28.90;;;10.20;99.90;;;;;;5063742;28;20460;-62
2022/10/13 07:57:07;;;;;;;61.22;28.55;;;10.30;99.90;;;;;;5052592;28;20102;-62
2022/10/13 07:59:33;;;;;;;63.92;28.15;;;10.30;99.90;;;;;;5059920;28;20085;-61
2022/10/13 08:02:01;;;;;;;62.45;27.58;;;10.40;99.90;;;;;;5053202;28;20465;-61
2022/10/13 08:04:31;;;;;;;71.70;29.80;;;10.40;99.90;;;;;;5051500;28;20048;-62
2022/10/13 08:06:57;;;;;;;72.00;30.25;;;10.50;99.90;;;;;;5065134;28;20167;-62
2022/10/13 08:09:24;;;;;;;65.90;28.98;;;10.60;99.90;;;;;;5071323;28;20115;-62
2022/10/13 08:11:49;;;;;;;72.40;31.02;;;10.60;99.90;;;;;;5062283;28;20117;-62
2022/10/13 08:14:15;;;;;;;94.07;34.10;;;10.70;99.90;;;;;;5051249;28;20107;-62
2022/10/13 08:16:44;;;;;;;83.85;33.85;;;10.80;99.90;;;;;;5051774;28;20085;-62
2022/10/13 08:19:10;;;;;;;82.43;33.58;;;10.90;99.90;;;;;;5056620;28;20040;-61
2022/10/13 08:21:37;;;;;;;68.85;30.52;;;10.90;99.90;;;;;;5051002;28;20055;-62
2022/10/13 08:24:04;;;;;;;65.65;28.98;;;11.00;99.90;;;;;;5061237;28;20373;-62
2022/10/13 08:26:30;;;;;;;96.07;35.63;;;11.10;99.90;;;;;;5051329;28;20041;-62
2022/10/13 08:28:55;;;;;;;71.53;31.70;;;11.20;99.90;;;;;;5051915;28;20479;-62
2022/10/13 08:31:21;;;;;;;71.00;31.52;;;11.30;99.90;;;;;;5060719;28;20109;-62
2022/10/13 08:33:47;;;;;;;82.68;33.08;;;11.30;99.90;;;;;;5054082;28;20040;-62
2022/10/13 08:36:14;;;;;;;67.63;30.80;;;11.40;99.90;;;;;;5068410;28;20043;-62
2022/10/13 08:38:40;;;;;;;71.72;30.77;;;11.50;99.90;;;;;;5058422;28;20136;-62
2022/10/13 08:41:21;;;;;;;76.10;32.60;;;11.60;99.90;;;;;;5054110;28;20535;-62
2022/10/13 08:43:52;;;;;;;61.42;29.40;;;11.70;99.90;;;;;;5059243;28;20051;-62
2022/10/13 08:46:26;;;;;;;68.35;31.92;;;11.80;99.90;;;;;;5062069;28;20500;-62
2022/10/13 08:48:52;;;;;;;66.22;31.38;;;12.00;99.90;;;;;;5068562;28;20479;-62
2022/10/13 08:51:18;;;;;;;69.85;31.85;;;12.00;99.90;;;;;;5048601;28;20211;-62
2022/10/13 08:53:45;;;;;;;64.53;31.15;;;12.10;99.90;;;;;;5065833;28;20325;-62
2022/10/13 08:56:26;;;;;;;65.05;30.10;;;12.00;99.90;;;;;;5066231;28;20044;-62
2022/10/13 08:58:53;;;;;;;59.78;29.33;;;12.00;99.90;;;;;;5063982;28;20111;-61
2022/10/13 09:01:29;;;;;;;55.70;28.67;;;12.00;99.90;;;;;;5064247;28;20333;-62
2022/10/13 09:04:35;;;;;;;62.10;29.48;;;12.10;99.90;;;;;;5047917;28;20049;-62
2022/10/13 09:07:19;;;;;;;54.50;28.05;;;12.10;99.90;;;;;;5048495;28;20143;-62
2022/10/13 09:09:50;;;;;;;52.88;28.27;;;12.10;99.90;;;;;;5047092;28;20095;-62
2022/10/13 09:12:20;;;;;;;54.60;27.95;;;12.10;99.90;;;;;;5047836;28;20036;-62
2022/10/13 09:15:16;;;;;;;55.25;28.33;;;12.10;99.90;;;;;;5052633;28;20057;-61
2022/10/13 09:17:42;;;;;;;55.65;27.73;;;12.20;99.90;;;;;;5059542;28;20047;-61
2022/10/13 09:20:21;;;;;;;51.65;27.67;;;12.30;99.90;;;;;;5047341;28;20123;-62
2022/10/13 09:23:05;;;;;;;50.78;25.38;;;12.20;99.90;;;;;;5063616;28;20140;-62
2022/10/13 09:25:43;;;;;;;47.47;25.35;;;12.20;99.90;;;;;;5062438;28;20562;-62
2022/10/13 09:28:25;;;;;;;58.92;28.20;;;12.30;99.90;;;;;;5056630;28;20123;-62
2022/10/13 09:31:04;;;;;;;55.78;27.00;;;12.30;99.90;;;;;;5051854;28;20037;-62
2022/10/13 09:33:35;;;;;;;51.28;27.42;;;12.40;99.90;;;;;;5037608;28;20032;-63
2022/10/13 09:36:05;;;;;;;55.33;28.63;;;12.40;99.90;;;;;;5035813;28;20036;-62
2022/10/13 09:38:31;;;;;;;59.40;29.17;;;12.30;99.90;;;;;;5030066;28;20044;-62
2022/10/13 09:41:04;;;;;;;65.20;28.52;;;12.30;99.90;;;;;;5057913;28;20120;-61
2022/10/13 09:43:35;;;;;;;65.68;29.65;;;12.30;99.90;;;;;;5047950;28;20443;-62
2022/10/13 09:46:25;;;;;;;66.43;30.35;;;12.30;99.90;;;;;;5063539;28;20352;-62
2022/10/13 09:48:57;;;;;;;67.47;30.92;;;12.20;99.90;;;;;;5050083;28;20033;-62
2022/10/13 09:51:31;;;;;;;80.38;34.75;;;12.20;99.90;;;;;;5064332;28;20431;-62
2022/10/13 09:53:57;;;;;;;60.80;29.88;;;12.30;99.90;;;;;;5048711;28;20096;-62
2022/10/13 09:56:32;;;;;;;68.88;31.75;;;12.40;99.90;;;;;;5052215;28;20087;-62
2022/10/13 09:59:13;;;;;;;61.00;29.83;;;12.40;99.90;;;;;;5045763;28;20037;-62
2022/10/13 10:01:39;;;;;;;;;;;12.50;99.90;;;;;;5051674;28;20041;-62
2022/10/13 10:04:11;;;;;;;63.55;30.02;;;12.70;99.90;;;;;;5053101;28;19927;-61
2022/10/13 10:06:39;;;;;;;62.22;32.20;;;12.70;99.90;;;;;;5064646;28;20081;-62
2022/10/13 10:09:18;;;;;;;60.83;30.92;;;12.90;99.90;;;;;;5067466;28;20045;-62
2022/10/13 10:11:46;;;;;;;64.82;32.40;;;13.00;99.90;;;;;;5057903;28;20037;-62
2022/10/13 10:14:21;;;;;;;61.90;29.33;;;13.00;99.90;;;;;;5049040;28;20041;-62
2022/10/13 10:16:58;;;;;;;59.67;29.38;;;13.00;99.90;;;;;;5049465;28;20064;-62
2022/10/13 10:19:25;;;;;;;55.60;28.58;;;13.00;99.90;;;;;;5058146;28;20570;-62
2022/10/13 10:22:11;;;;;;;59.92;29.45;;;13.00;99.90;;;;;;5049914;28;20330;-62
2022/10/13 10:25:12;;;;;;;52.90;27.92;;;13.00;99.90;;;;;;5055257;28;20045;-62
2022/10/13 10:27:43;;;;;;;;;;;13.00;99.90;;;;;;5048709;28;20053;-62
2022/10/13 10:30:19;;;;;;;50.08;26.33;;;12.90;99.90;;;;;;5050203;28;20313;-62
2022/10/13 10:33:01;;;;;;;57.65;28.65;;;13.00;99.90;;;;;;5064202;28;20033;-62
2022/10/13 10:36:16;;;;;;;52.22;27.92;;;13.00;99.90;;;;;;5065771;28;20219;-62
2022/10/13 10:38:50;;;;;;;48.83;25.75;;;13.00;99.90;;;;;;5028624;28;20147;-62
2022/10/13 10:41:40;;;;;;;53.08;27.23;;;13.00;99.90;;;;;;5066983;28;20381;-62
2022/10/13 10:44:20;;;;;;;51.60;25.52;;;13.10;99.90;;;;;;5064926;28;20476;-62
2022/10/13 10:46:48;;;;;;;47.10;26.90;;;13.20;99.90;;;;;;5070263;28;20040;-61
2022/10/13 10:49:26;;;;;;;53.15;25.48;;;13.10;99.90;;;;;;5064714;28;20095;-61
2022/10/13 10:51:52;;;;;;;62.65;27.50;;;13.10;99.90;;;;;;5056131;28;20067;-62
2022/10/13 10:54:45;;;;;;;51.40;25.88;;;13.00;99.90;;;;;;5056362;28;20086;-62
2022/10/13 10:57:28;;;;;;;57.35;26.23;;;12.90;99.90;;;;;;5064431;28;20462;-62
2022/10/13 11:00:14;;;;;;;53.22;27.73;;;12.80;99.90;;;;;;5068345;28;20051;-62
2022/10/13 11:03:06;;;;;;;54.60;26.08;;;12.80;99.90;;;;;;5063005;28;20078;-62
2022/10/13 11:05:57;;;;;;;48.28;25.52;;;12.80;99.90;;;;;;5062100;28;20040;-63
2022/10/13 11:08:37;;;;;;;47.33;25.23;;;12.80;99.90;;;;;;5066138;28;20117;-62
2022/10/13 11:11:21;;;;;;;54.15;26.48;;;12.80;99.90;;;;;;5064116;28;20037;-62
2022/10/13 11:14:23;;;;;;;51.97;25.63;;;12.70;99.90;;;;;;5064658;28;20056;-62
2022/10/13 11:16:58;;;;;;;48.05;25.83;;;12.80;99.90;;;;;;5030542;28;20053;-62
2022/10/13 11:19:26;;;;;;;50.50;26.25;;;12.70;99.90;;;;;;5053664;28;20037;-63
2022/10/13 11:21:58;;;;;;;46.75;24.75;;;12.80;99.90;;;;;;5053024;28;20136;-62
2022/10/13 11:24:33;;;;;;;45.70;25.20;;;12.70;99.90;;;;;;5066381;28;20041;-63
2022/10/13 11:27:23;;;;;;;51.25;25.33;;;12.70;99.90;;;;;;5050019;28;20048;-62
2022/10/13 11:29:59;;;;;;;50.57;24.73;;;12.70;99.90;;;;;;5063593;28;20071;-62
2022/10/13 11:32:54;;;;;;;46.83;24.85;;;12.80;99.90;;;;;;5056606;28;20298;-62
2022/10/13 11:35:10;;;;;;;59.28;27.67;;;12.80;99.90;;;;;;5053786;28;20415;-62
2022/10/13 11:38:09;;;;;;;50.35;26.30;;;12.80;99.90;;;;;;5050341;28;20175;-62
2022/10/13 11:41:10;;;;;;;48.45;26.38;;;12.90;99.90;;;;;;5050366;28;20065;-62
2022/10/13 11:43:35;;;;;;;;;;;13.00;99.90;;;;;;5046987;28;20041;-63
2022/10/13 11:46:18;;;;;;;49.80;26.00;;;13.00;99.90;;;;;;5050322;28;20376;-62
2022/10/13 11:49:15;;;;;;;48.22;25.45;;;13.00;99.90;;;;;;5049316;28;20063;-63
2022/10/13 11:52:17;;;;;;;54.15;27.30;;;13.00;99.90;;;;;;5051139;28;20045;-62
2022/10/13 11:54:54;;;;;;;47.67;26.75;;;13.00;99.90;;;;;;5020262;28;20087;-62
2022/10/13 11:57:24;;;;;;;60.45;28.83;;;13.00;99.90;;;;;;5046506;28;20057;-63
2022/10/13 11:59:54;;;;;;;51.05;27.83;;;13.10;99.90;;;;;;5051265;28;20048;-62
2022/10/13 12:02:22;;;;;;;51.17;27.40;;;13.10;99.90;;;;;;5052172;28;20461;-62
2022/10/13 12:05:24;;;;;;;50.35;27.40;;;13.00;99.90;;;;;;5049578;28;20284;-63
2022/10/13 12:07:53;;;;;;;57.78;27.50;;;13.00;99.90;;;;;;5041604;28;20389;-63
2022/10/13 12:10:36;;;;;;;63.92;29.83;;;13.00;99.90;;;;;;5054055;28;20044;-63
2022/10/13 12:13:03;;;;;;;61.28;28.67;;;13.00;99.90;;;;;;5047438;28;20051;-62
2022/10/13 12:15:34;;;;;;;75.45;30.88;;;13.00;99.90;;;;;;5054299;28;20048;-62
2022/10/13 12:18:01;;;;;;;56.75;28.98;;;13.00;99.90;;;;;;5058853;28;20037;-62
2022/10/13 12:20:29;;;;;;;59.92;29.58;;;13.00;99.90;;;;;;5049287;28;20041;-63
2022/10/13 12:22:56;;;;;;;65.60;31.25;;;13.00;99.90;;;;;;5063518;28;20280;-63
2022/10/13 12:25:26;;;;;;;64.32;29.40;;;13.00;99.90;;;;;;5067499;28;20151;-63
2022/10/13 12:27:55;;;;;;;60.63;28.85;;;13.00;99.90;;;;;;5046736;28;20129;-63
2022/10/13 12:30:34;;;;;;;60.70;29.33;;;13.00;99.90;;;;;;5048997;28;20044;-62
2022/10/13 12:33:00;;;;;;;74.28;33.90;;;13.00;99.90;;;;;;5037416;28;20039;-63
2022/10/13 12:35:28;;;;;;;67.40;31.33;;;13.10;99.90;;;;;;5028852;28;20064;-63
2022/10/13 12:37:55;;;;;;;64.78;30.42;;;13.10;99.90;;;;;;5046598;28;20120;-62
2022/10/13 12:40:22;;;;;;;71.80;32.72;;;13.20;99.90;;;;;;5050892;28;20091;-62
2022/10/13 12:42:49;;;;;;;66.35;31.70;;;13.20;99.90;;;;;;5048309;28;20056;-61
2022/10/13 12:45:18;;;;;;;74.90;33.60;;;13.30;99.90;;;;;;5055656;28;20162;-62
2022/10/13 12:47:43;;;;;;;77.80;34.38;;;13.40;99.90;;;;;;5062462;28;20048;-62
2022/10/13 12:50:24;;;;;;;72.07;33.50;;;13.40;99.90;;;;;;5061445;28;20461;-62
2022/10/13 12:52:52;;;;;;;83.72;34.25;;;13.50;99.90;;;;;;5049208;28;20408;-62